sensor_id;sensor_type;location;lat;lon;timestamp;pressure;altitude;pressure_sealevel;temperature;humidity
20955;BME280;10636;19.390;-99.256;2023-02-16T00:00:45;77579.75;;;25.90;28.71
20955;BME280;10636;19.390;-99.256;2023-02-16T00:03:17;77585.81;;;25.90;28.82
20955;BME280;10636;19.390;-99.256;2023-02-16T00:05:47;77583.69;;;25.87;28.71
20955;BME280;10636;19.390;-99.256;2023-02-16T00:08:17;77584.38;;;25.87;28.68
20955;BME280;10636;19.390;-99.256;2023-02-16T00:10:47;77588.44;;;25.88;28.76
20955;BME280;10636;19.390;-99.256;2023-02-16T00:13:31;77583.75;;;25.89;28.78
20955;BME280;10636;19.390;-99.256;2023-02-16T00:16:16;77589.13;;;25.89;28.93
20955;BME280;10636;19.390;-99.256;2023-02-16T00:18:49;77588.44;;;25.88;28.97
20955;BME280;10636;19.390;-99.256;2023-02-16T00:21:19;77595.81;;;25.88;28.73
20955;BME280;10636;19.390;-99.256;2023-02-16T00:23:49;77591.06;;;25.86;28.63
20955;BME280;10636;19.390;-99.256;2023-02-16T00:26:22;77598.44;;;25.86;28.69
20955;BME280;10636;19.390;-99.256;2023-02-16T00:28:57;77608.50;;;25.85;29.00
20955;BME280;10636;19.390;-99.256;2023-02-16T00:31:33;77610.50;;;25.85;28.31
20955;BME280;10636;19.390;-99.256;2023-02-16T00:34:23;77615.88;;;25.85;28.44
20955;BME280;10636;19.390;-99.256;2023-02-16T00:36:54;77622.53;;;25.84;28.63
20955;BME280;10636;19.390;-99.256;2023-02-16T00:39:24;77621.69;;;25.77;28.60
20955;BME280;10636;19.390;-99.256;2023-02-16T00:41:53;77633.19;;;25.79;28.41
20955;BME280;10636;19.390;-99.256;2023-02-16T00:44:30;77640.56;;;25.79;28.38
20955;BME280;10636;19.390;-99.256;2023-02-16T00:47:05;77643.84;;;25.77;28.49
20955;BME280;10636;19.390;-99.256;2023-02-16T00:49:37;77638.50;;;25.77;28.38
20955;BME280;10636;19.390;-99.256;2023-02-16T00:52:22;77643.84;;;25.77;28.69
20955;BME280;10636;19.390;-99.256;2023-02-16T00:54:53;77638.44;;;25.75;28.68
20955;BME280;10636;19.390;-99.256;2023-02-16T00:57:23;77649.09;;;25.73;28.58
20955;BME280;10636;19.390;-99.256;2023-02-16T01:00:04;77643.66;;;25.71;28.52
20955;BME280;10636;19.390;-99.256;2023-02-16T01:02:34;77650.34;;;25.70;28.67
20955;BME280;10636;19.390;-99.256;2023-02-16T01:05:04;77651.59;;;25.67;28.43
20955;BME280;10636;19.390;-99.256;2023-02-16T01:07:34;77659.72;;;25.69;28.06
20955;BME280;10636;19.390;-99.256;2023-02-16T01:10:20;77660.44;;;25.72;28.45
20955;BME280;10636;19.390;-99.256;2023-02-16T01:13:08;77662.44;;;25.71;28.43
20955;BME280;10636;19.390;-99.256;2023-02-16T01:15:43;77662.41;;;25.69;28.47
20955;BME280;10636;19.390;-99.256;2023-02-16T01:18:15;77656.28;;;25.67;28.14
20955;BME280;10636;19.390;-99.256;2023-02-16T01:20:45;77659.47;;;25.61;27.88
20955;BME280;10636;19.390;-99.256;2023-02-16T01:23:18;77659.47;;;25.61;27.96
20955;BME280;10636;19.390;-99.256;2023-02-16T01:25:47;77663.41;;;25.58;27.81
20955;BME280;10636;19.390;-99.256;2023-02-16T01:28:18;77671.31;;;25.54;27.85
20955;BME280;10636;19.390;-99.256;2023-02-16T01:30:49;77678.84;;;25.58;27.79
20955;BME280;10636;19.390;-99.256;2023-02-16T01:33:18;77674.69;;;25.54;28.02
20955;BME280;10636;19.390;-99.256;2023-02-16T01:35:47;77681.31;;;25.51;28.21
20955;BME280;10636;19.390;-99.256;2023-02-16T01:38:19;77668.31;;;25.44;27.86
20955;BME280;10636;19.390;-99.256;2023-02-16T01:40:54;77689.31;;;25.49;27.67
20955;BME280;10636;19.390;-99.256;2023-02-16T01:43:27;77691.31;;;25.49;27.81
20955;BME280;10636;19.390;-99.256;2023-02-16T01:46:03;77688.00;;;25.50;28.07
20955;BME280;10636;19.390;-99.256;2023-02-16T01:48:35;77699.22;;;25.45;28.33
20955;BME280;10636;19.390;-99.256;2023-02-16T01:51:09;77702.59;;;25.45;28.34
20955;BME280;10636;19.390;-99.256;2023-02-16T01:53:43;77705.16;;;25.41;28.71
20955;BME280;10636;19.390;-99.256;2023-02-16T01:56:17;77703.03;;;25.38;28.71
20955;BME280;10636;19.390;-99.256;2023-02-16T01:58:48;77719.28;;;25.42;28.36
20955;BME280;10636;19.390;-99.256;2023-02-16T02:01:40;77728.56;;;25.39;28.77
20955;BME280;10636;19.390;-99.256;2023-02-16T02:04:13;77725.19;;;25.38;28.72
20955;BME280;10636;19.390;-99.256;2023-02-16T02:06:58;77727.78;;;25.36;28.82
20955;BME280;10636;19.390;-99.256;2023-02-16T02:09:35;77733.75;;;25.33;28.97
20955;BME280;10636;19.390;-99.256;2023-02-16T02:12:12;77737.75;;;25.32;29.30
20955;BME280;10636;19.390;-99.256;2023-02-16T02:14:42;77741.66;;;25.28;29.15
20955;BME280;10636;19.390;-99.256;2023-02-16T02:17:15;77745.56;;;25.25;29.20
20955;BME280;10636;19.390;-99.256;2023-02-16T02:19:50;77751.72;;;25.28;29.16
20955;BME280;10636;19.390;-99.256;2023-02-16T02:22:51;77748.25;;;25.25;28.92
20955;BME280;10636;19.390;-99.256;2023-02-16T02:25:59;77758.31;;;25.25;29.44
20955;BME280;10636;19.390;-99.256;2023-02-16T02:28:41;77754.25;;;25.24;29.63
20955;BME280;10636;19.390;-99.256;2023-02-16T02:31:20;77759.56;;;25.22;29.61
20955;BME280;10636;19.390;-99.256;2023-02-16T02:34:03;77759.56;;;25.22;29.37
20955;BME280;10636;19.390;-99.256;2023-02-16T02:36:36;77760.03;;;25.16;29.41
20955;BME280;10636;19.390;-99.256;2023-02-16T02:39:18;77761.41;;;25.17;29.45
20955;BME280;10636;19.390;-99.256;2023-02-16T02:41:57;77772.16;;;25.17;29.11
20955;BME280;10636;19.390;-99.256;2023-02-16T02:44:38;77774.78;;;25.15;29.66
20955;BME280;10636;19.390;-99.256;2023-02-16T02:47:07;77776.16;;;25.16;29.80
20955;BME280;10636;19.390;-99.256;2023-02-16T02:49:36;77777.47;;;25.15;29.28
20955;BME280;10636;19.390;-99.256;2023-02-16T02:52:04;77774.69;;;25.13;29.85
20955;BME280;10636;19.390;-99.256;2023-02-16T02:54:35;77780.13;;;25.15;30.06
20955;BME280;10636;19.390;-99.256;2023-02-16T02:57:25;77780.25;;;25.19;30.06
20955;BME280;10636;19.390;-99.256;2023-02-16T03:00:18;77776.97;;;25.21;29.93
20955;BME280;10636;19.390;-99.256;2023-02-16T03:03:08;77780.25;;;25.19;30.50
20955;BME280;10636;19.390;-99.256;2023-02-16T03:05:42;77780.34;;;25.21;30.92
20955;BME280;10636;19.390;-99.256;2023-02-16T03:08:14;77785.78;;;25.23;30.61
20955;BME280;10636;19.390;-99.256;2023-02-16T03:10:47;77784.41;;;25.22;31.04
20955;BME280;10636;19.390;-99.256;2023-02-16T03:13:37;77785.03;;;25.21;30.78
20955;BME280;10636;19.390;-99.256;2023-02-16T03:16:12;77781.63;;;25.20;30.97
20955;BME280;10636;19.390;-99.256;2023-02-16T03:18:42;77796.34;;;25.19;31.19
20955;BME280;10636;19.390;-99.256;2023-02-16T03:21:28;77792.31;;;25.18;31.11
20955;BME280;10636;19.390;-99.256;2023-02-16T03:24:15;77800.34;;;25.18;31.50
20955;BME280;10636;19.390;-99.256;2023-02-16T03:27:03;77793.00;;;25.19;31.54
20955;BME280;10636;19.390;-99.256;2023-02-16T03:29:51;77797.66;;;25.18;31.97
20955;BME280;10636;19.390;-99.256;2023-02-16T03:32:21;77795.66;;;25.19;31.87
20955;BME280;10636;19.390;-99.256;2023-02-16T03:34:50;77808.41;;;25.18;31.88
20955;BME280;10636;19.390;-99.256;2023-02-16T03:37:19;77806.41;;;25.19;31.86
20955;BME280;10636;19.390;-99.256;2023-02-16T03:39:48;77809.19;;;25.21;31.62
20955;BME280;10636;19.390;-99.256;2023-02-16T03:42:33;77808.47;;;25.20;31.86
20955;BME280;10636;19.390;-99.256;2023-02-16T03:45:02;77803.09;;;25.20;31.86
20955;BME280;10636;19.390;-99.256;2023-02-16T03:47:32;77807.03;;;25.17;31.86
20955;BME280;10636;19.390;-99.256;2023-02-16T03:50:01;77805.72;;;25.18;32.03
20955;BME280;10636;19.390;-99.256;2023-02-16T03:52:29;77809.78;;;25.19;32.01
20955;BME280;10636;19.390;-99.256;2023-02-16T03:54:58;77806.41;;;25.19;32.37
20955;BME280;10636;19.390;-99.256;2023-02-16T03:57:27;77805.72;;;25.18;32.00
20955;BME280;10636;19.390;-99.256;2023-02-16T03:59:56;77812.47;;;25.19;31.72
20955;BME280;10636;19.390;-99.256;2023-02-16T04:02:25;77811.78;;;25.19;31.71
20955;BME280;10636;19.390;-99.256;2023-02-16T04:04:55;77792.47;;;25.04;32.15
20955;BME280;10636;19.390;-99.256;2023-02-16T04:07:24;77811.09;;;25.18;32.03
20955;BME280;10636;19.390;-99.256;2023-02-16T04:09:52;77809.72;;;25.17;31.66
20955;BME280;10636;19.390;-99.256;2023-02-16T04:12:21;77813.03;;;25.16;31.63
20955;BME280;10636;19.390;-99.256;2023-02-16T04:15:05;77804.84;;;25.12;31.67
20955;BME280;10636;19.390;-99.256;2023-02-16T04:17:34;77815.03;;;25.15;32.01
20955;BME280;10636;19.390;-99.256;2023-02-16T04:20:05;77806.25;;;25.15;32.06
20955;BME280;10636;19.390;-99.256;2023-02-16T04:22:34;77815.03;;;25.15;31.82
20955;BME280;10636;19.390;-99.256;2023-02-16T04:25:03;77809.56;;;25.13;31.75
20955;BME280;10636;19.390;-99.256;2023-02-16T04:27:32;77808.25;;;25.14;32.06
20955;BME280;10636;19.390;-99.256;2023-02-16T04:30:00;77814.94;;;25.13;31.61
20955;BME280;10636;19.390;-99.256;2023-02-16T04:32:29;77815.63;;;25.14;31.58
20955;BME280;10636;19.390;-99.256;2023-02-16T04:34:58;77810.94;;;25.14;31.97
20955;BME280;10636;19.390;-99.256;2023-02-16T04:37:28;77814.88;;;25.11;31.77
20955;BME280;10636;19.390;-99.256;2023-02-16T04:39:56;77818.25;;;25.12;32.18
20955;BME280;10636;19.390;-99.256;2023-02-16T04:42:25;77822.31;;;25.13;32.16
20955;BME280;10636;19.390;-99.256;2023-02-16T04:44:54;77824.31;;;25.12;32.15
20955;BME280;10636;19.390;-99.256;2023-02-16T04:47:22;77829.66;;;25.12;31.89
20955;BME280;10636;19.390;-99.256;2023-02-16T04:49:54;77827.59;;;25.11;31.77
20955;BME280;10636;19.390;-99.256;2023-02-16T04:52:22;77830.88;;;25.09;31.88
20955;BME280;10636;19.390;-99.256;2023-02-16T04:54:53;77825.53;;;25.09;31.86
20955;BME280;10636;19.390;-99.256;2023-02-16T04:57:22;77825.53;;;25.09;31.94
20955;BME280;10636;19.390;-99.256;2023-02-16T04:59:51;77828.22;;;25.09;31.90
20955;BME280;10636;19.390;-99.256;2023-02-16T05:02:19;77824.16;;;25.08;31.61
20955;BME280;10636;19.390;-99.256;2023-02-16T05:04:48;77822.78;;;25.07;31.90
20955;BME280;10636;19.390;-99.256;2023-02-16T05:07:16;77826.78;;;25.06;31.56
20955;BME280;10636;19.390;-99.256;2023-02-16T05:09:45;77821.41;;;25.06;32.07
20955;BME280;10636;19.390;-99.256;2023-02-16T05:12:15;77821.41;;;25.06;32.07
20955;BME280;10636;19.390;-99.256;2023-02-16T05:15:01;77818.00;;;25.06;31.63
20955;BME280;10636;19.390;-99.256;2023-02-16T05:17:29;77815.34;;;25.06;31.58
20955;BME280;10636;19.390;-99.256;2023-02-16T05:19:59;77820.00;;;25.05;31.94
20955;BME280;10636;19.390;-99.256;2023-02-16T05:22:28;77818.63;;;25.04;31.57
20955;BME280;10636;19.390;-99.256;2023-02-16T05:24:58;77815.88;;;25.02;32.05
20955;BME280;10636;19.390;-99.256;2023-02-16T05:27:29;77819.88;;;25.01;31.95
20955;BME280;10636;19.390;-99.256;2023-02-16T05:29:58;77817.19;;;25.01;32.11
20955;BME280;10636;19.390;-99.256;2023-02-16T05:32:27;77814.50;;;25.01;32.00
20955;BME280;10636;19.390;-99.256;2023-02-16T05:34:55;77807.06;;;24.99;31.89
20955;BME280;10636;19.390;-99.256;2023-02-16T05:37:24;77803.69;;;24.99;31.73
20955;BME280;10636;19.390;-99.256;2023-02-16T05:39:52;77811.72;;;24.99;32.05
20955;BME280;10636;19.390;-99.256;2023-02-16T05:42:21;77813.72;;;24.98;31.81
20955;BME280;10636;19.390;-99.256;2023-02-16T05:44:51;77805.00;;;24.98;32.06
20955;BME280;10636;19.390;-99.256;2023-02-16T05:47:20;77812.34;;;24.97;31.89
20955;BME280;10636;19.390;-99.256;2023-02-16T05:49:49;77819.72;;;24.97;31.69
20955;BME280;10636;19.390;-99.256;2023-02-16T05:52:17;77814.97;;;24.95;31.79
20955;BME280;10636;19.390;-99.256;2023-02-16T05:54:46;77823.72;;;24.96;32.15
20955;BME280;10636;19.390;-99.256;2023-02-16T05:57:14;77816.97;;;24.95;32.00
20955;BME280;10636;19.390;-99.256;2023-02-16T05:59:43;77816.97;;;24.95;31.83
20955;BME280;10636;19.390;-99.256;2023-02-16T06:02:13;77802.50;;;24.84;32.12
20955;BME280;10636;19.390;-99.256;2023-02-16T06:04:42;77812.81;;;24.92;31.77
20955;BME280;10636;19.390;-99.256;2023-02-16T06:07:10;77818.88;;;24.92;31.61
20955;BME280;10636;19.390;-99.256;2023-02-16T06:09:39;77811.47;;;24.91;31.75
20955;BME280;10636;19.390;-99.256;2023-02-16T06:12:07;77818.13;;;24.90;31.89
20955;BME280;10636;19.390;-99.256;2023-02-16T06:14:36;77814.06;;;24.89;31.53
20955;BME280;10636;19.390;-99.256;2023-02-16T06:17:04;77812.75;;;24.90;32.13
20955;BME280;10636;19.390;-99.256;2023-02-16T06:19:34;77812.69;;;24.88;32.16
20955;BME280;10636;19.390;-99.256;2023-02-16T06:22:03;77810.00;;;24.88;31.89
20955;BME280;10636;19.390;-99.256;2023-02-16T06:24:32;77811.31;;;24.87;32.15
20955;BME280;10636;19.390;-99.256;2023-02-16T06:27:00;77815.28;;;24.86;31.87
20955;BME280;10636;19.390;-99.256;2023-02-16T06:29:29;77813.94;;;24.85;31.77
20955;BME280;10636;19.390;-99.256;2023-02-16T06:31:57;77813.94;;;24.85;32.21
20955;BME280;10636;19.390;-99.256;2023-02-16T06:34:26;77816.59;;;24.85;31.86
20955;BME280;10636;19.390;-99.256;2023-02-16T06:36:56;77813.84;;;24.83;32.27
20955;BME280;10636;19.390;-99.256;2023-02-16T06:39:25;77813.78;;;24.81;32.11
20955;BME280;10636;19.390;-99.256;2023-02-16T06:41:53;77792.44;;;24.65;32.35
20955;BME280;10636;19.390;-99.256;2023-02-16T06:44:22;77817.78;;;24.80;31.65
20955;BME280;10636;19.390;-99.256;2023-02-16T06:46:50;77819.09;;;24.78;31.69
20955;BME280;10636;19.390;-99.256;2023-02-16T06:49:20;77816.41;;;24.78;32.30
20955;BME280;10636;19.390;-99.256;2023-02-16T06:51:49;77824.34;;;24.76;31.88
20955;BME280;10636;19.390;-99.256;2023-02-16T06:54:19;77829.72;;;24.76;31.95
20955;BME280;10636;19.390;-99.256;2023-02-16T06:56:48;77825.59;;;24.73;32.09
20955;BME280;10636;19.390;-99.256;2023-02-16T06:59:16;77828.28;;;24.73;31.90
20955;BME280;10636;19.390;-99.256;2023-02-16T07:01:45;77826.88;;;24.72;31.45
20955;BME280;10636;19.390;-99.256;2023-02-16T07:04:13;77822.84;;;24.71;32.08
20955;BME280;10636;19.390;-99.256;2023-02-16T07:06:42;77822.75;;;24.69;31.77
20955;BME280;10636;19.390;-99.256;2023-02-16T07:09:10;77834.19;;;24.70;31.59
20955;BME280;10636;19.390;-99.256;2023-02-16T07:11:41;77830.13;;;24.69;31.90
20955;BME280;10636;19.390;-99.256;2023-02-16T07:14:09;77821.31;;;24.66;32.03
20955;BME280;10636;19.390;-99.256;2023-02-16T07:16:38;77817.88;;;24.64;31.98
20955;BME280;10636;19.390;-99.256;2023-02-16T07:19:07;77820.56;;;24.64;31.73
20955;BME280;10636;19.390;-99.256;2023-02-16T07:21:35;77822.56;;;24.63;31.91
20955;BME280;10636;19.390;-99.256;2023-02-16T07:24:04;77810.38;;;24.60;31.54
20955;BME280;10636;19.390;-99.256;2023-02-16T07:26:33;77819.78;;;24.61;31.57
20955;BME280;10636;19.390;-99.256;2023-02-16T07:29:05;77813.03;;;24.60;31.70
20955;BME280;10636;19.390;-99.256;2023-02-16T07:31:34;77814.41;;;24.61;31.49
20955;BME280;10636;19.390;-99.256;2023-02-16T07:34:02;77810.91;;;24.57;31.44
20955;BME280;10636;19.390;-99.256;2023-02-16T07:36:31;77826.38;;;24.58;31.89
20955;BME280;10636;19.390;-99.256;2023-02-16T07:39:00;77813.56;;;24.57;31.23
20955;BME280;10636;19.390;-99.256;2023-02-16T07:41:28;77818.88;;;24.55;31.68
20955;BME280;10636;19.390;-99.256;2023-02-16T07:43:57;77827.59;;;24.55;31.87
20955;BME280;10636;19.390;-99.256;2023-02-16T07:46:27;77814.72;;;24.51;31.70
20955;BME280;10636;19.390;-99.256;2023-02-16T07:48:55;77817.41;;;24.51;31.90
20955;BME280;10636;19.390;-99.256;2023-02-16T07:51:25;77819.41;;;24.51;31.82
20955;BME280;10636;19.390;-99.256;2023-02-16T07:53:54;77814.03;;;24.51;31.23
20955;BME280;10636;19.390;-99.256;2023-02-16T07:56:23;77818.03;;;24.50;31.58
20955;BME280;10636;19.390;-99.256;2023-02-16T07:58:52;77813.28;;;24.48;32.10
20955;BME280;10636;19.390;-99.256;2023-02-16T08:01:21;77808.47;;;24.45;32.00
20955;BME280;10636;19.390;-99.256;2023-02-16T08:03:51;77811.25;;;24.47;31.34
20955;BME280;10636;19.390;-99.256;2023-02-16T08:06:20;77819.28;;;24.47;31.57
20955;BME280;10636;19.390;-99.256;2023-02-16T08:08:49;77809.84;;;24.46;31.90
20955;BME280;10636;19.390;-99.256;2023-02-16T08:11:19;77813.81;;;24.45;31.41
20955;BME280;10636;19.390;-99.256;2023-02-16T08:13:48;77813.13;;;24.44;31.49
20955;BME280;10636;19.390;-99.256;2023-02-16T08:16:18;77809.78;;;24.44;31.60
20955;BME280;10636;19.390;-99.256;2023-02-16T08:18:47;77813.75;;;24.43;31.81
20955;BME280;10636;19.390;-99.256;2023-02-16T08:21:18;77813.66;;;24.41;31.59
20955;BME280;10636;19.390;-99.256;2023-02-16T08:23:52;77806.94;;;24.40;31.84
20955;BME280;10636;19.390;-99.256;2023-02-16T08:26:22;77805.56;;;24.39;32.03
20955;BME280;10636;19.390;-99.256;2023-02-16T08:28:51;77802.88;;;24.39;31.99
20955;BME280;10636;19.390;-99.256;2023-02-16T08:31:23;77800.22;;;24.39;31.41
20955;BME280;10636;19.390;-99.256;2023-02-16T08:33:53;77800.88;;;24.39;31.99
20955;BME280;10636;19.390;-99.256;2023-02-16T08:36:25;77799.34;;;24.34;31.95
20955;BME280;10636;19.390;-99.256;2023-02-16T08:38:58;77806.78;;;24.36;31.71
20955;BME280;10636;19.390;-99.256;2023-02-16T08:41:30;77808.06;;;24.35;32.02
20955;BME280;10636;19.390;-99.256;2023-02-16T08:43:59;77808.00;;;24.33;31.46
20955;BME280;10636;19.390;-99.256;2023-02-16T08:46:31;77806.69;;;24.34;31.70
20955;BME280;10636;19.390;-99.256;2023-02-16T08:49:01;77804.63;;;24.32;31.51
20955;BME280;10636;19.390;-99.256;2023-02-16T08:51:32;77806.63;;;24.32;31.32
20955;BME280;10636;19.390;-99.256;2023-02-16T08:54:02;77815.34;;;24.32;31.07
20955;BME280;10636;19.390;-99.256;2023-02-16T08:56:31;77811.97;;;24.32;31.79
20955;BME280;10636;19.390;-99.256;2023-02-16T08:59:00;77818.63;;;24.31;31.49
20955;BME280;10636;19.390;-99.256;2023-02-16T09:01:28;77819.94;;;24.30;31.84
20955;BME280;10636;19.390;-99.256;2023-02-16T09:04:00;77817.13;;;24.25;31.16
20955;BME280;10636;19.390;-99.256;2023-02-16T09:06:30;77819.81;;;24.25;31.27
20955;BME280;10636;19.390;-99.256;2023-02-16T09:08:59;77812.97;;;24.22;31.13
20955;BME280;10636;19.390;-99.256;2023-02-16T09:11:28;77821.69;;;24.23;31.22
20955;BME280;10636;19.390;-99.256;2023-02-16T09:13:57;77827.06;;;24.23;31.31
20955;BME280;10636;19.390;-99.256;2023-02-16T09:16:26;77827.06;;;24.23;31.66
20955;BME280;10636;19.390;-99.256;2023-02-16T09:18:59;77827.75;;;24.23;31.13
20955;BME280;10636;19.390;-99.256;2023-02-16T09:21:31;77822.22;;;24.19;30.90
20955;BME280;10636;19.390;-99.256;2023-02-16T09:24:01;77821.63;;;24.21;31.60
20955;BME280;10636;19.390;-99.256;2023-02-16T09:26:31;77822.22;;;24.19;31.04
20955;BME280;10636;19.390;-99.256;2023-02-16T09:29:01;77822.91;;;24.20;31.22
20955;BME280;10636;19.390;-99.256;2023-02-16T09:31:31;77822.22;;;24.19;30.87
20955;BME280;10636;19.390;-99.256;2023-02-16T09:34:01;77829.59;;;24.19;31.10
20955;BME280;10636;19.390;-99.256;2023-02-16T09:36:33;77836.25;;;24.18;31.14
20955;BME280;10636;19.390;-99.256;2023-02-16T09:39:01;77832.81;;;24.15;30.69
20955;BME280;10636;19.390;-99.256;2023-02-16T09:41:35;77838.19;;;24.15;30.93
20955;BME280;10636;19.390;-99.256;2023-02-16T09:44:15;77834.03;;;24.12;30.95
20955;BME280;10636;19.390;-99.256;2023-02-16T09:46:48;77829.13;;;24.07;31.20
20955;BME280;10636;19.390;-99.256;2023-02-16T09:49:23;77836.72;;;24.12;30.65
20955;BME280;10636;19.390;-99.256;2023-02-16T09:52:01;77832.66;;;24.11;31.09
20955;BME280;10636;19.390;-99.256;2023-02-16T09:54:37;77831.28;;;24.10;30.80
20955;BME280;10636;19.390;-99.256;2023-02-16T09:57:14;77833.28;;;24.10;30.67
20955;BME280;10636;19.390;-99.256;2023-02-16T09:59:51;77831.13;;;24.06;30.78
20955;BME280;10636;19.390;-99.256;2023-02-16T10:02:33;77843.22;;;24.07;30.67
20955;BME280;10636;19.390;-99.256;2023-02-16T10:05:19;77837.78;;;24.05;30.67
20955;BME280;10636;19.390;-99.256;2023-02-16T10:07:58;77846.41;;;24.04;31.45
20955;BME280;10636;19.390;-99.256;2023-02-16T10:10:36;77833.72;;;24.04;30.66
20955;BME280;10636;19.390;-99.256;2023-02-16T10:13:14;77848.41;;;24.03;30.59
20955;BME280;10636;19.390;-99.256;2023-02-16T10:15:44;77844.34;;;24.02;31.10
20955;BME280;10636;19.390;-99.256;2023-02-16T10:18:19;77839.69;;;24.03;30.77
20955;BME280;10636;19.390;-99.256;2023-02-16T10:20:53;77844.97;;;24.00;31.20
20955;BME280;10636;19.390;-99.256;2023-02-16T10:23:33;77844.28;;;24.00;30.81
20955;BME280;10636;19.390;-99.256;2023-02-16T10:26:16;77842.88;;;23.99;31.38
20955;BME280;10636;19.390;-99.256;2023-02-16T10:28:48;77844.13;;;23.96;30.64
20955;BME280;10636;19.390;-99.256;2023-02-16T10:31:25;77842.81;;;23.97;31.26
20955;BME280;10636;19.390;-99.256;2023-02-16T10:34:13;77845.50;;;23.97;31.24
20955;BME280;10636;19.390;-99.256;2023-02-16T10:36:55;77839.38;;;23.94;31.06
20955;BME280;10636;19.390;-99.256;2023-02-16T10:39:37;77842.75;;;23.95;30.60
20955;BME280;10636;19.390;-99.256;2023-02-16T10:42:16;77846.03;;;23.93;30.95
20955;BME280;10636;19.390;-99.256;2023-02-16T10:44:49;77838.59;;;23.92;30.52
20955;BME280;10636;19.390;-99.256;2023-02-16T10:47:29;77844.47;;;23.88;31.08
20955;BME280;10636;19.390;-99.256;2023-02-16T10:49:59;77846.56;;;23.90;30.52
20955;BME280;10636;19.390;-99.256;2023-02-16T10:52:32;77833.78;;;23.88;31.25
20955;BME280;10636;19.390;-99.256;2023-02-16T10:55:05;77833.09;;;23.88;30.90
20955;BME280;10636;19.390;-99.256;2023-02-16T10:57:34;77827.03;;;23.87;30.45
20955;BME280;10636;19.390;-99.256;2023-02-16T11:00:05;77828.28;;;23.84;30.82
20955;BME280;10636;19.390;-99.256;2023-02-16T11:02:38;77820.94;;;23.85;30.99
20955;BME280;10636;19.390;-99.256;2023-02-16T11:05:33;77822.81;;;23.82;31.08
20955;BME280;10636;19.390;-99.256;2023-02-16T11:08:04;77824.13;;;23.81;31.00
20955;BME280;10636;19.390;-99.256;2023-02-16T11:10:40;77822.06;;;23.80;30.78
20955;BME280;10636;19.390;-99.256;2023-02-16T11:13:25;77819.16;;;23.73;30.94
20955;BME280;10636;19.390;-99.256;2023-02-16T11:15:59;77823.44;;;23.81;30.38
20955;BME280;10636;19.390;-99.256;2023-02-16T11:18:34;77826.06;;;23.79;30.68
20955;BME280;10636;19.390;-99.256;2023-02-16T11:21:04;77817.91;;;23.77;30.44
20955;BME280;10636;19.390;-99.256;2023-02-16T11:23:34;77821.97;;;23.78;30.25
20955;BME280;10636;19.390;-99.256;2023-02-16T11:26:10;77821.91;;;23.76;30.68
20955;BME280;10636;19.390;-99.256;2023-02-16T11:28:49;77821.91;;;23.76;30.21
20955;BME280;10636;19.390;-99.256;2023-02-16T11:31:20;77825.88;;;23.74;30.66
20955;BME280;10636;19.390;-99.256;2023-02-16T11:33:57;77839.28;;;23.74;30.06
20955;BME280;10636;19.390;-99.256;2023-02-16T11:36:32;77827.03;;;23.69;30.20
20955;BME280;10636;19.390;-99.256;2023-02-16T11:39:04;77832.44;;;23.71;30.66
20955;BME280;10636;19.390;-99.256;2023-02-16T11:41:35;77833.75;;;23.70;30.44
20955;BME280;10636;19.390;-99.256;2023-02-16T11:44:04;77840.41;;;23.69;30.71
20955;BME280;10636;19.390;-99.256;2023-02-16T11:46:47;77837.63;;;23.67;30.69
20955;BME280;10636;19.390;-99.256;2023-02-16T11:49:31;77844.28;;;23.66;29.83
20955;BME280;10636;19.390;-99.256;2023-02-16T11:52:00;77842.94;;;23.65;30.05
20955;BME280;10636;19.390;-99.256;2023-02-16T11:54:48;77849.59;;;23.64;30.71
20955;BME280;10636;19.390;-99.256;2023-02-16T11:57:23;77853.44;;;23.61;30.33
20955;BME280;10636;19.390;-99.256;2023-02-16T11:59:52;77852.16;;;23.62;30.22
20955;BME280;10636;19.390;-99.256;2023-02-16T12:02:59;77851.44;;;23.62;30.55
20955;BME280;10636;19.390;-99.256;2023-02-16T12:05:40;77845.41;;;23.61;30.63
20955;BME280;10636;19.390;-99.256;2023-02-16T12:08:31;77857.41;;;23.60;30.40
20955;BME280;10636;19.390;-99.256;2023-02-16T12:11:15;77852.69;;;23.59;30.32
20955;BME280;10636;19.390;-99.256;2023-02-16T12:13:52;77856.03;;;23.59;30.50
20955;BME280;10636;19.390;-99.256;2023-02-16T12:16:29;77864.00;;;23.57;30.37
20955;BME280;10636;19.390;-99.256;2023-02-16T12:19:15;77855.25;;;23.57;30.57
20955;BME280;10636;19.390;-99.256;2023-02-16T12:21:48;77862.00;;;23.58;31.02
20955;BME280;10636;19.390;-99.256;2023-02-16T12:24:28;77861.31;;;23.57;30.72
20955;BME280;10636;19.390;-99.256;2023-02-16T12:27:02;77866.59;;;23.55;30.97
20955;BME280;10636;19.390;-99.256;2023-02-16T12:29:48;77869.25;;;23.55;30.63
20955;BME280;10636;19.390;-99.256;2023-02-16T12:32:30;77863.22;;;23.55;29.59
20955;BME280;10636;19.390;-99.256;2023-02-16T12:35:17;77858.25;;;23.47;29.57
20955;BME280;10636;19.390;-99.256;2023-02-16T12:37:54;77859.97;;;23.40;29.79
20955;BME280;10636;19.390;-99.256;2023-02-16T12:40:35;77869.28;;;23.39;28.39
20955;BME280;10636;19.390;-99.256;2023-02-16T12:43:20;77865.50;;;23.29;28.89
20955;BME280;10636;19.390;-99.256;2023-02-16T12:45:55;77868.81;;;23.27;28.43
20955;BME280;10636;19.390;-99.256;2023-02-16T12:48:34;77873.97;;;23.23;28.24
20955;BME280;10636;19.390;-99.256;2023-02-16T12:51:09;77876.41;;;23.17;28.22
20955;BME280;10636;19.390;-99.256;2023-02-16T12:53:44;77880.19;;;23.12;28.17
20955;BME280;10636;19.390;-99.256;2023-02-16T12:56:19;77878.13;;;23.10;27.61
20955;BME280;10636;19.390;-99.256;2023-02-16T13:01:24;77875.03;;;23.00;28.25
20955;BME280;10636;19.390;-99.256;2023-02-16T13:03:58;77880.28;;;22.98;28.18
20955;BME280;10636;19.390;-99.256;2023-02-16T13:06:31;77878.84;;;22.95;27.96
20955;BME280;10636;19.390;-99.256;2023-02-16T13:09:12;77885.38;;;22.92;27.72
20955;BME280;10636;19.390;-99.256;2023-02-16T13:11:48;77887.97;;;22.90;28.39
20955;BME280;10636;19.390;-99.256;2023-02-16T13:14:19;77891.13;;;22.86;28.31